Station Historical Data
Daily Summary for April 10, 2017 Units:  English    Metric   Both
« Previous Day
Next Day »
Daily Weekly Monthly Yearly Custom
  High: Low: Average:
Temperature: 80.8 °F 49.1 °F 63.8 °F
Dew Point: 49.9 °F 20.5 °F 38.2 °F
Humidity: 82% 27% 41%
Wind Speed: 2.0mph 0.0mph 0.1mph
Wind Gust: 5.0mph - -
Wind- - West
Pressure: 30.30 in 30.01 in -
Precipitation: 0.02 in    
Historical Graphs
 
 
Tabular Data for April 10, 2017
Time Temperature Dew Point Pressure Wind Wind Speed Wind Gust Humidity Rainfall Rate (Hourly) Conditions
00:00 57.2 °F 40.7 °F 30.19 in Calm     54% 0.00 in RA
00:15 56.6 °F 40.1 °F 30.19 in Calm     54% 0.00 in SCT
00:30 55.8 °F 41.7 °F 30.20 in Calm     59% 0.00 in SCT
00:45 55.2 °F 41.5 °F 30.20 in Calm     60% 0.00 in SCT
01:00 55.9 °F 41.3 °F 30.20 in Calm     58% 0.00 in SCT
01:15 54.9 °F 25.5 °F 30.20 in Calm     32% 0.00 in SCT
01:30 52.9 °F 23.8 °F 30.20 in Calm     32% 0.00 in SCT
01:45 52.3 °F 23.3 °F 30.20 in Calm     32% 0.00 in SCT
02:00 51.2 °F 22.3 °F 30.21 in Calm     32% 0.00 in SCT
02:15 50.6 °F 21.7 °F 30.19 in Calm     32% 0.00 in SCT
02:30 50.3 °F 21.6 °F 30.20 in Calm     32% 0.00 in SCT
02:45 49.9 °F 21.2 °F 30.20 in Calm     32% 0.00 in SCT
03:00 49.7 °F 21.0 °F 30.20 in Calm     32% 0.00 in SCT
03:15 49.4 °F 20.8 °F 30.20 in Calm     32% 0.00 in SCT
03:30 49.4 °F 20.7 °F 30.20 in Calm     32% 0.00 in SCT
03:45 49.3 °F 20.7 °F 30.20 in Calm     32% 0.00 in SCT
04:00 49.3 °F 20.6 °F 30.21 in Calm     32% 0.00 in SCT
04:15 49.2 °F 20.6 °F 30.21 in Calm     32% 0.00 in SCT
04:30 49.2 °F 20.6 °F 30.21 in Calm     32% 0.00 in SCT
04:45 49.2 °F 20.5 °F 30.19 in Calm     32% 0.00 in SCT
05:00 49.2 °F 20.5 °F 30.21 in Calm     32% 0.00 in SCT
05:15 49.1 °F 20.5 °F 30.22 in Calm     32% 0.00 in SCT
05:30 49.1 °F 20.5 °F 30.20 in Calm     32% 0.00 in SCT
05:45 49.1 °F 20.5 °F 30.23 in Calm     32% 0.00 in SCT
06:00 49.1 °F 20.5 °F 30.23 in Calm     32% 0.00 in SCT
06:15 49.1 °F 20.5 °F 30.14 in Calm     32% 0.00 in SCT
06:30 49.1 °F 20.5 °F 30.24 in Calm     32% 0.00 in SCT
06:45 49.1 °F 20.5 °F 30.25 in Calm     32% 0.00 in SCT
07:00 49.1 °F 20.5 °F 30.25 in Calm     32% 0.00 in SCT
07:15 49.1 °F 20.5 °F 30.25 in Calm     32% 0.00 in SCT
07:30 49.1 °F 20.5 °F 30.26 in Calm     32% 0.00 in SCT
07:45 49.1 °F 20.5 °F 30.26 in Calm     32% 0.00 in SCT
08:00 49.1 °F 20.5 °F 30.27 in Calm     32% 0.00 in SCT
08:15 50.2 °F 44.9 °F 30.28 in Calm     82% 0.00 in SCT
08:30 51.8 °F 45.8 °F 30.28 in Calm     80% 0.00 in SCT
08:45 53.6 °F 46.5 °F 30.29 in Calm     77% 0.00 in SCT
09:00 55.2 °F 47.4 °F 30.29 in Calm   2.0 mph 75% 0.00 in SCT
09:15 57.0 °F 47.7 °F 30.29 in Calm   2.0 mph 71% 0.00 in SCT
09:30 57.7 °F 48.0 °F 30.29 in Calm   2.0 mph 70% 0.00 in SCT
09:45 60.0 °F 48.6 °F 30.29 in Calm   1.0 mph 66% 0.00 in SCT
10:00 62.5 °F 48.9 °F 30.29 in Calm   2.0 mph 61% 0.00 in SCT
10:15 65.0 °F 49.9 °F 30.29 in Calm   1.0 mph 58% 0.00 in SCT
10:30 65.9 °F 49.8 °F 30.30 in Calm   2.0 mph 56% 0.00 in SCT
10:45 67.2 °F 47.9 °F 30.30 in Calm   3.0 mph 50% 0.00 in SCT
11:00 68.9 °F 47.9 °F 30.30 in Calm   3.0 mph 47% 0.00 in SCT
11:15 70.7 °F 48.3 °F 30.30 in Calm   3.0 mph 45% 0.00 in SCT
11:30 72.1 °F 47.8 °F 30.30 in NW 1.0 mph 2.0 mph 42% 0.00 in SCT
11:45 73.0 °F 49.2 °F 30.30 in Calm   3.0 mph 43% 0.00 in SCT
12:00 73.9 °F 46.7 °F 30.30 in Calm   3.0 mph 38% 0.00 in SCT
12:15 75.5 °F 46.7 °F 30.30 in Calm   3.0 mph 36% 0.00 in SCT
12:30 77.4 °F 43.5 °F 30.29 in Calm   5.0 mph 30% 0.00 in SCT
12:45 78.2 °F 45.9 °F 30.29 in NW 1.0 mph 5.0 mph 32% 0.00 in SCT
13:00 78.1 °F 44.1 °F 30.28 in Calm   3.0 mph 30% 0.00 in SCT
13:15 79.0 °F 47.4 °F 30.28 in Calm   2.0 mph 33% 0.00 in SCT
13:30 79.1 °F 45.0 °F 30.27 in WNW 2.0 mph 3.0 mph 30% 0.00 in SCT
13:45 78.7 °F 49.5 °F 30.27 in Calm   5.0 mph 36% 0.02 in SCT
14:15 79.6 °F 44.5 °F 30.26 in Calm   2.0 mph 29% 0.00 in SCT
14:30 80.8 °F 44.6 °F 30.01 in NW 1.0 mph 3.0 mph 28% 0.00 in SCT
14:45 79.5 °F 43.5 °F 30.25 in NE 1.0 mph 3.0 mph 28% 0.00 in SCT
15:00 79.5 °F 44.5 °F 30.24 in Calm   3.0 mph 29% 0.00 in SCT
15:15 78.9 °F 42.1 °F 30.24 in Calm   2.0 mph 27% 0.00 in SCT
15:30 78.6 °F 41.8 °F 30.23 in WNW 1.0 mph 5.0 mph 27% 0.00 in SCT
15:45 78.9 °F 43.0 °F 30.23 in Calm   3.0 mph 28% 0.00 in SCT
16:00 78.6 °F 43.7 °F 30.22 in Calm   3.0 mph 29% 0.00 in SCT
16:15 78.7 °F 45.5 °F 30.22 in Calm   2.0 mph 31% 0.00 in SCT
16:30 78.4 °F 43.5 °F 30.22 in Calm   2.0 mph 29% 0.00 in SCT
16:45 78.3 °F 43.4 °F 30.21 in Calm   2.0 mph 29% 0.00 in SCT
17:00 78.9 °F 44.8 °F 30.20 in Calm   2.0 mph 30% 0.00 in SCT
17:15 79.2 °F 43.3 °F 30.19 in Calm   2.0 mph 28% 0.00 in SCT
17:30 78.6 °F 43.7 °F 30.19 in Calm   3.0 mph 29% 0.00 in SCT
17:45 78.3 °F 44.3 °F 30.19 in Calm   1.0 mph 30% 0.00 in SCT
18:00 77.7 °F 42.0 °F 30.19 in WNW 1.0 mph 2.0 mph 28% 0.00 in SCT
18:15 77.3 °F 42.5 °F 30.19 in Calm   2.0 mph 29% 0.00 in SCT
18:30 76.9 °F 43.1 °F 30.18 in Calm   2.0 mph 30% 0.00 in SCT
18:45 76.4 °F 42.7 °F 30.18 in Calm   3.0 mph 30% 0.00 in SCT
19:00 75.6 °F 42.8 °F 30.18 in Calm   1.0 mph 31% 0.00 in SCT
19:15 74.7 °F 43.6 °F 30.18 in Calm   1.0 mph 33% 0.00 in SCT
19:30 74.0 °F 42.3 °F 30.18 in Calm   1.0 mph 32% 0.00 in SCT
19:45 73.3 °F 44.0 °F 30.19 in Calm   1.0 mph 35% 0.00 in SCT
20:00 72.1 °F 45.7 °F 30.18 in Calm     39% 0.00 in SCT
20:15 70.8 °F 45.3 °F 30.19 in Calm     40% 0.00 in SCT
20:30 69.5 °F 44.7 °F 30.19 in Calm     41% 0.00 in SCT
20:45 68.4 °F 45.6 °F 30.19 in Calm     44% 0.00 in SCT
21:00 67.3 °F 45.8 °F 30.20 in Calm     46% 0.00 in SCT
21:15 66.3 °F 46.0 °F 30.20 in Calm     48% 0.00 in SCT
21:30 65.3 °F 46.7 °F 30.20 in Calm     51% 0.00 in SCT
21:45 64.6 °F 47.5 °F 30.21 in Calm     54% 0.00 in SCT
22:00 64.1 °F 47.1 °F 30.22 in Calm     54% 0.00 in SCT
22:15 63.2 °F 47.2 °F 30.22 in Calm     56% 0.00 in SCT
22:30 62.7 °F 48.2 °F 30.24 in Calm     59% 0.00 in SCT
22:45 62.1 °F 48.9 °F 30.24 in Calm     62% 0.00 in SCT
23:00 62.0 °F 48.4 °F 30.25 in Calm     61% 0.00 in SCT
23:30 60.9 °F 49.1 °F 30.25 in Calm     65% 0.00 in SCT
23:45 60.5 °F 49.5 °F 30.26 in Calm     67% 0.00 in SCT
Piedmont Bend
Compliments of Weather Underground - 2 mb